sensor_id;sensor_type;location;lat;lon;timestamp;temperature;humidity
17007;DHT22;8620;51.168;4.154;2023-05-18T07:01:16;16.00;99.90
17007;DHT22;8620;51.168;4.154;2023-05-18T07:03:48;14.60;99.90
17007;DHT22;8620;51.168;4.154;2023-05-18T07:06:14;15.30;99.90
17007;DHT22;8620;51.168;4.154;2023-05-18T07:08:40;16.50;99.90
17007;DHT22;8620;51.168;4.154;2023-05-18T07:11:09;17.70;99.90
17007;DHT22;8620;51.168;4.154;2023-05-18T07:13:40;18.80;99.90
17007;DHT22;8620;51.168;4.154;2023-05-18T07:16:18;18.50;99.90
17007;DHT22;8620;51.168;4.154;2023-05-18T07:18:44;17.90;99.90
17007;DHT22;8620;51.168;4.154;2023-05-18T07:21:24;18.10;99.90
17007;DHT22;8620;51.168;4.154;2023-05-18T07:23:58;18.60;99.90
17007;DHT22;8620;51.168;4.154;2023-05-18T07:26:32;16.90;99.90
17007;DHT22;8620;51.168;4.154;2023-05-18T07:28:58;16.80;99.90
17007;DHT22;8620;51.168;4.154;2023-05-18T07:31:26;17.90;99.90
17007;DHT22;8620;51.168;4.154;2023-05-18T07:33:52;18.20;99.90
17007;DHT22;8620;51.168;4.154;2023-05-18T07:36:21;18.90;99.90
17007;DHT22;8620;51.168;4.154;2023-05-18T07:38:47;17.10;99.90
17007;DHT22;8620;51.168;4.154;2023-05-18T07:41:19;17.20;99.90
17007;DHT22;8620;51.168;4.154;2023-05-18T07:43:50;16.70;99.90
17007;DHT22;8620;51.168;4.154;2023-05-18T07:46:24;16.40;99.90
17007;DHT22;8620;51.168;4.154;2023-05-18T07:48:50;17.40;99.90
17007;DHT22;8620;51.168;4.154;2023-05-18T07:51:19;18.80;99.90
17007;DHT22;8620;51.168;4.154;2023-05-18T07:53:45;19.90;99.90
17007;DHT22;8620;51.168;4.154;2023-05-18T07:56:11;18.70;99.90
17007;DHT22;8620;51.168;4.154;2023-05-18T07:58:36;17.60;99.90
17007;DHT22;8620;51.168;4.154;2023-05-18T08:01:06;18.50;99.90
17007;DHT22;8620;51.168;4.154;2023-05-18T08:03:34;18.80;99.90
17007;DHT22;8620;51.168;4.154;2023-05-18T08:06:01;19.30;99.90
17007;DHT22;8620;51.168;4.154;2023-05-18T08:08:45;19.00;99.90
17007;DHT22;8620;51.168;4.154;2023-05-18T08:11:37;19.00;99.90
17007;DHT22;8620;51.168;4.154;2023-05-18T08:14:09;17.70;99.90
17007;DHT22;8620;51.168;4.154;2023-05-18T08:16:35;18.00;99.90
17007;DHT22;8620;51.168;4.154;2023-05-18T08:19:04;18.00;99.90
17007;DHT22;8620;51.168;4.154;2023-05-18T08:21:30;19.20;99.90
17007;DHT22;8620;51.168;4.154;2023-05-18T08:24:05;19.80;99.90
17007;DHT22;8620;51.168;4.154;2023-05-18T08:26:39;19.50;99.90
17007;DHT22;8620;51.168;4.154;2023-05-18T08:29:11;19.10;99.90
17007;DHT22;8620;51.168;4.154;2023-05-18T08:31:46;19.20;99.90
17007;DHT22;8620;51.168;4.154;2023-05-18T08:34:12;19.20;99.90
17007;DHT22;8620;51.168;4.154;2023-05-18T08:36:38;19.60;99.90
17007;DHT22;8620;51.168;4.154;2023-05-18T08:39:11;19.30;99.90
17007;DHT22;8620;51.168;4.154;2023-05-18T08:44:39;18.70;99.90
17007;DHT22;8620;51.168;4.154;2023-05-18T08:47:17;17.90;99.90
17007;DHT22;8620;51.168;4.154;2023-05-18T08:49:55;16.50;99.90
17007;DHT22;8620;51.168;4.154;2023-05-18T08:52:30;16.90;99.90
17007;DHT22;8620;51.168;4.154;2023-05-18T08:55:06;17.50;99.90
17007;DHT22;8620;51.168;4.154;2023-05-18T08:58:16;18.40;99.90
17007;DHT22;8620;51.168;4.154;2023-05-18T09:00:52;17.20;99.90
17007;DHT22;8620;51.168;4.154;2023-05-18T09:04:05;18.00;99.90
17007;DHT22;8620;51.168;4.154;2023-05-18T09:10:32;18.80;99.90
17007;DHT22;8620;51.168;4.154;2023-05-18T09:13:44;17.50;99.90
17007;DHT22;8620;51.168;4.154;2023-05-18T09:16:45;16.30;99.90
17007;DHT22;8620;51.168;4.154;2023-05-18T09:20:05;16.70;99.90
17007;DHT22;8620;51.168;4.154;2023-05-18T09:23:10;16.70;99.90
17007;DHT22;8620;51.168;4.154;2023-05-18T09:26:18;16.30;99.90
17007;DHT22;8620;51.168;4.154;2023-05-18T09:29:38;16.50;99.90
17007;DHT22;8620;51.168;4.154;2023-05-18T09:32:42;16.30;99.90
17007;DHT22;8620;51.168;4.154;2023-05-18T09:35:48;16.30;99.90
17007;DHT22;8620;51.168;4.154;2023-05-18T09:39:16;16.60;99.90
17007;DHT22;8620;51.168;4.154;2023-05-18T09:42:59;17.30;99.90
17007;DHT22;8620;51.168;4.154;2023-05-18T09:46:26;17.00;99.90
17007;DHT22;8620;51.168;4.154;2023-05-18T09:49:39;16.90;99.90
17007;DHT22;8620;51.168;4.154;2023-05-18T09:52:25;17.60;99.90
17007;DHT22;8620;51.168;4.154;2023-05-18T09:55:35;19.20;99.90
17007;DHT22;8620;51.168;4.154;2023-05-18T09:58:59;18.80;99.90
17007;DHT22;8620;51.168;4.154;2023-05-18T10:01:36;17.10;99.90
17007;DHT22;8620;51.168;4.154;2023-05-18T10:04:18;17.60;99.90
17007;DHT22;8620;51.168;4.154;2023-05-18T10:06:53;17.80;99.90
17007;DHT22;8620;51.168;4.154;2023-05-18T10:09:23;17.70;99.90
17007;DHT22;8620;51.168;4.154;2023-05-18T10:11:51;17.50;99.90
17007;DHT22;8620;51.168;4.154;2023-05-18T10:14:25;18.20;99.90
17007;DHT22;8620;51.168;4.154;2023-05-18T10:16:54;19.30;99.90
17007;DHT22;8620;51.168;4.154;2023-05-18T10:19:32;17.60;99.90
17007;DHT22;8620;51.168;4.154;2023-05-18T10:33:34;16.90;99.90
17007;DHT22;8620;51.168;4.154;2023-05-18T10:36:41;16.70;99.90
17007;DHT22;8620;51.168;4.154;2023-05-18T10:39:11;17.70;99.90
17007;DHT22;8620;51.168;4.154;2023-05-18T10:41:45;17.40;99.90
17007;DHT22;8620;51.168;4.154;2023-05-18T10:44:14;17.10;99.90
17007;DHT22;8620;51.168;4.154;2023-05-18T10:47:06;17.60;99.90
17007;DHT22;8620;51.168;4.154;2023-05-18T10:49:36;18.30;99.90
17007;DHT22;8620;51.168;4.154;2023-05-18T10:52:11;17.70;99.90
17007;DHT22;8620;51.168;4.154;2023-05-18T10:54:59;17.40;99.90
17007;DHT22;8620;51.168;4.154;2023-05-18T10:57:35;18.20;99.90
17007;DHT22;8620;51.168;4.154;2023-05-18T11:00:30;17.60;99.90
17007;DHT22;8620;51.168;4.154;2023-05-18T11:06:36;17.90;99.90
17007;DHT22;8620;51.168;4.154;2023-05-18T11:09:28;18.70;99.90
17007;DHT22;8620;51.168;4.154;2023-05-18T11:12:17;19.20;99.90
17007;DHT22;8620;51.168;4.154;2023-05-18T11:14:52;18.60;99.90
17007;DHT22;8620;51.168;4.154;2023-05-18T11:17:39;18.70;99.90
17007;DHT22;8620;51.168;4.154;2023-05-18T11:20:27;18.20;99.90
17007;DHT22;8620;51.168;4.154;2023-05-18T11:23:51;18.10;99.90
17007;DHT22;8620;51.168;4.154;2023-05-18T11:27:15;18.40;99.90
17007;DHT22;8620;51.168;4.154;2023-05-18T11:29:49;18.20;99.90
17007;DHT22;8620;51.168;4.154;2023-05-18T11:32:58;18.20;99.90
17007;DHT22;8620;51.168;4.154;2023-05-18T11:39:33;19.30;99.90
17007;DHT22;8620;51.168;4.154;2023-05-18T11:42:38;20.00;99.90
17007;DHT22;8620;51.168;4.154;2023-05-18T11:48:00;18.70;99.90
17007;DHT22;8620;51.168;4.154;2023-05-18T11:50:32;18.30;99.90
17007;DHT22;8620;51.168;4.154;2023-05-18T11:53:36;18.40;99.90
17007;DHT22;8620;51.168;4.154;2023-05-18T11:56:25;17.70;99.90
17007;DHT22;8620;51.168;4.154;2023-05-18T11:59:16;17.70;99.90
17007;DHT22;8620;51.168;4.154;2023-05-18T12:02:12;17.50;99.90
17007;DHT22;8620;51.168;4.154;2023-05-18T12:04:54;17.20;99.90
17007;DHT22;8620;51.168;4.154;2023-05-18T12:07:21;17.30;99.90
17007;DHT22;8620;51.168;4.154;2023-05-18T12:09:49;17.30;99.90
17007;DHT22;8620;51.168;4.154;2023-05-18T12:12:24;17.10;99.90
17007;DHT22;8620;51.168;4.154;2023-05-18T12:15:13;17.60;99.90
17007;DHT22;8620;51.168;4.154;2023-05-18T12:18:26;17.70;99.90
17007;DHT22;8620;51.168;4.154;2023-05-18T12:21:11;18.10;99.90
17007;DHT22;8620;51.168;4.154;2023-05-18T12:24:02;17.80;99.90
17007;DHT22;8620;51.168;4.154;2023-05-18T12:26:53;17.70;99.90
17007;DHT22;8620;51.168;4.154;2023-05-18T12:29:43;18.00;99.90
17007;DHT22;8620;51.168;4.154;2023-05-18T12:32:29;18.20;99.90
17007;DHT22;8620;51.168;4.154;2023-05-18T12:35:33;18.20;99.90
17007;DHT22;8620;51.168;4.154;2023-05-18T12:38:04;18.00;99.90
17007;DHT22;8620;51.168;4.154;2023-05-18T12:40:34;17.40;99.90
17007;DHT22;8620;51.168;4.154;2023-05-18T12:43:13;17.10;99.90
17007;DHT22;8620;51.168;4.154;2023-05-18T12:45:39;17.10;99.90
17007;DHT22;8620;51.168;4.154;2023-05-18T12:48:06;17.40;99.90
17007;DHT22;8620;51.168;4.154;2023-05-18T12:50:34;17.30;99.90
17007;DHT22;8620;51.168;4.154;2023-05-18T12:53:01;17.60;99.90
17007;DHT22;8620;51.168;4.154;2023-05-18T12:55:30;17.60;99.90
17007;DHT22;8620;51.168;4.154;2023-05-18T12:58:19;17.90;99.90
17007;DHT22;8620;51.168;4.154;2023-05-18T13:00:47;18.30;99.90
17007;DHT22;8620;51.168;4.154;2023-05-18T13:03:17;18.30;99.90
17007;DHT22;8620;51.168;4.154;2023-05-18T13:06:05;18.00;99.90
17007;DHT22;8620;51.168;4.154;2023-05-18T13:08:33;18.20;99.90
17007;DHT22;8620;51.168;4.154;2023-05-18T13:11:06;18.00;99.90
17007;DHT22;8620;51.168;4.154;2023-05-18T13:13:33;17.40;99.90
17007;DHT22;8620;51.168;4.154;2023-05-18T13:15:59;17.40;99.90
17007;DHT22;8620;51.168;4.154;2023-05-18T13:18:29;17.30;99.90
17007;DHT22;8620;51.168;4.154;2023-05-18T13:20:56;17.20;99.90
17007;DHT22;8620;51.168;4.154;2023-05-18T13:23:27;17.50;99.90
17007;DHT22;8620;51.168;4.154;2023-05-18T13:25:54;17.50;99.90
17007;DHT22;8620;51.168;4.154;2023-05-18T13:28:21;17.80;99.90
17007;DHT22;8620;51.168;4.154;2023-05-18T13:30:50;18.10;99.90
17007;DHT22;8620;51.168;4.154;2023-05-18T13:33:21;17.70;99.90
17007;DHT22;8620;51.168;4.154;2023-05-18T13:35:55;17.80;99.90
17007;DHT22;8620;51.168;4.154;2023-05-18T13:38:44;17.50;99.90
17007;DHT22;8620;51.168;4.154;2023-05-18T13:41:10;17.10;99.90
17007;DHT22;8620;51.168;4.154;2023-05-18T13:43:39;17.20;99.90
17007;DHT22;8620;51.168;4.154;2023-05-18T13:46:07;17.40;99.90
17007;DHT22;8620;51.168;4.154;2023-05-18T13:48:50;17.40;99.90
17007;DHT22;8620;51.168;4.154;2023-05-18T13:51:18;17.70;99.90
17007;DHT22;8620;51.168;4.154;2023-05-18T13:53:47;17.40;99.90
17007;DHT22;8620;51.168;4.154;2023-05-18T13:56:13;17.10;99.90
17007;DHT22;8620;51.168;4.154;2023-05-18T13:58:38;17.00;99.90
17007;DHT22;8620;51.168;4.154;2023-05-18T14:01:04;17.10;99.90
17007;DHT22;8620;51.168;4.154;2023-05-18T14:03:32;17.10;99.90
17007;DHT22;8620;51.168;4.154;2023-05-18T14:06:04;17.10;99.90
17007;DHT22;8620;51.168;4.154;2023-05-18T14:08:31;17.10;99.90
17007;DHT22;8620;51.168;4.154;2023-05-18T14:10:57;17.10;99.90
17007;DHT22;8620;51.168;4.154;2023-05-18T14:13:23;17.30;99.90
17007;DHT22;8620;51.168;4.154;2023-05-18T14:15:48;17.50;99.90
17007;DHT22;8620;51.168;4.154;2023-05-18T14:18:21;17.70;99.90
17007;DHT22;8620;51.168;4.154;2023-05-18T14:20:50;17.90;99.90
17007;DHT22;8620;51.168;4.154;2023-05-18T14:23:20;17.90;99.90
17007;DHT22;8620;51.168;4.154;2023-05-18T14:26:15;17.90;99.90
17007;DHT22;8620;51.168;4.154;2023-05-18T14:28:42;17.50;99.90
17007;DHT22;8620;51.168;4.154;2023-05-18T14:31:08;17.40;99.90
17007;DHT22;8620;51.168;4.154;2023-05-18T14:33:34;17.60;99.90
17007;DHT22;8620;51.168;4.154;2023-05-18T14:36:09;17.70;99.90
17007;DHT22;8620;51.168;4.154;2023-05-18T14:38:39;17.60;99.90
17007;DHT22;8620;51.168;4.154;2023-05-18T14:41:08;17.60;99.90
17007;DHT22;8620;51.168;4.154;2023-05-18T14:43:39;17.40;99.90
17007;DHT22;8620;51.168;4.154;2023-05-18T14:46:13;17.60;99.90
17007;DHT22;8620;51.168;4.154;2023-05-18T14:48:38;17.60;99.90
17007;DHT22;8620;51.168;4.154;2023-05-18T14:51:12;17.50;99.90
17007;DHT22;8620;51.168;4.154;2023-05-18T14:53:50;17.50;99.90
17007;DHT22;8620;51.168;4.154;2023-05-18T14:56:39;17.60;99.90
17007;DHT22;8620;51.168;4.154;2023-05-18T14:59:22;17.40;99.90
17007;DHT22;8620;51.168;4.154;2023-05-18T15:01:48;17.40;99.90
17007;DHT22;8620;51.168;4.154;2023-05-18T15:04:14;17.70;99.90
17007;DHT22;8620;51.168;4.154;2023-05-18T15:06:55;18.10;99.90
17007;DHT22;8620;51.168;4.154;2023-05-18T15:09:41;17.70;99.90
17007;DHT22;8620;51.168;4.154;2023-05-18T15:12:07;17.70;99.90
17007;DHT22;8620;51.168;4.154;2023-05-18T15:14:36;17.40;99.90
17007;DHT22;8620;51.168;4.154;2023-05-18T15:17:02;17.30;99.90
17007;DHT22;8620;51.168;4.154;2023-05-18T15:19:33;17.30;99.90
17007;DHT22;8620;51.168;4.154;2023-05-18T15:22:08;17.60;99.90
17007;DHT22;8620;51.168;4.154;2023-05-18T15:24:34;17.50;99.90
17007;DHT22;8620;51.168;4.154;2023-05-18T15:27:11;17.40;99.90
17007;DHT22;8620;51.168;4.154;2023-05-18T15:29:55;17.80;99.90
17007;DHT22;8620;51.168;4.154;2023-05-18T15:32:28;17.50;99.90
17007;DHT22;8620;51.168;4.154;2023-05-18T15:35:01;17.70;99.90
17007;DHT22;8620;51.168;4.154;2023-05-18T15:37:36;17.40;99.90
17007;DHT22;8620;51.168;4.154;2023-05-18T15:40:07;17.40;99.90
17007;DHT22;8620;51.168;4.154;2023-05-18T15:42:46;17.70;99.90
17007;DHT22;8620;51.168;4.154;2023-05-18T15:45:32;17.70;99.90
17007;DHT22;8620;51.168;4.154;2023-05-18T15:47:58;17.60;99.90
17007;DHT22;8620;51.168;4.154;2023-05-18T15:50:24;17.50;99.90
17007;DHT22;8620;51.168;4.154;2023-05-18T15:53:00;17.60;99.90
17007;DHT22;8620;51.168;4.154;2023-05-18T15:55:26;17.60;99.90
17007;DHT22;8620;51.168;4.154;2023-05-18T15:58:20;17.60;99.90
17007;DHT22;8620;51.168;4.154;2023-05-18T16:01:02;17.60;99.90
17007;DHT22;8620;51.168;4.154;2023-05-18T16:04:05;17.30;99.90
17007;DHT22;8620;51.168;4.154;2023-05-18T16:06:43;17.50;99.90
17007;DHT22;8620;51.168;4.154;2023-05-18T16:09:11;17.50;99.90
17007;DHT22;8620;51.168;4.154;2023-05-18T16:12:02;17.20;99.90
17007;DHT22;8620;51.168;4.154;2023-05-18T16:14:42;17.10;99.90
17007;DHT22;8620;51.168;4.154;2023-05-18T16:17:33;16.80;99.90
17007;DHT22;8620;51.168;4.154;2023-05-18T16:20:07;16.70;99.90
17007;DHT22;8620;51.168;4.154;2023-05-18T16:22:53;16.70;99.90
17007;DHT22;8620;51.168;4.154;2023-05-18T16:25:24;16.80;99.90
17007;DHT22;8620;51.168;4.154;2023-05-18T16:27:50;16.80;99.90
17007;DHT22;8620;51.168;4.154;2023-05-18T16:30:44;16.90;99.90
17007;DHT22;8620;51.168;4.154;2023-05-18T16:33:28;16.90;99.90
17007;DHT22;8620;51.168;4.154;2023-05-18T16:35:56;17.00;99.90
17007;DHT22;8620;51.168;4.154;2023-05-18T16:38:46;16.90;99.90
17007;DHT22;8620;51.168;4.154;2023-05-18T16:41:30;16.90;99.90
17007;DHT22;8620;51.168;4.154;2023-05-18T16:44:23;16.70;99.90
17007;DHT22;8620;51.168;4.154;2023-05-18T16:47:15;16.70;99.90
17007;DHT22;8620;51.168;4.154;2023-05-18T16:49:47;16.60;99.90
17007;DHT22;8620;51.168;4.154;2023-05-18T16:52:32;16.60;99.90
17007;DHT22;8620;51.168;4.154;2023-05-18T16:55:07;16.60;99.90
17007;DHT22;8620;51.168;4.154;2023-05-18T16:57:57;16.40;99.90
17007;DHT22;8620;51.168;4.154;2023-05-18T17:00:40;16.40;99.90
17007;DHT22;8620;51.168;4.154;2023-05-18T17:03:24;16.60;99.90
17007;DHT22;8620;51.168;4.154;2023-05-18T17:06:09;16.70;99.90
17007;DHT22;8620;51.168;4.154;2023-05-18T17:08:58;16.60;99.90
17007;DHT22;8620;51.168;4.154;2023-05-18T17:11:59;16.60;99.90
17007;DHT22;8620;51.168;4.154;2023-05-18T17:15:05;16.80;99.90
17007;DHT22;8620;51.168;4.154;2023-05-18T17:18:09;16.70;99.90
17007;DHT22;8620;51.168;4.154;2023-05-18T17:21:00;16.70;99.90
17007;DHT22;8620;51.168;4.154;2023-05-18T17:23:56;16.50;99.90
17007;DHT22;8620;51.168;4.154;2023-05-18T17:26:59;16.40;99.90
17007;DHT22;8620;51.168;4.154;2023-05-18T17:29:50;16.40;99.90
17007;DHT22;8620;51.168;4.154;2023-05-18T17:32:45;16.40;99.90
17007;DHT22;8620;51.168;4.154;2023-05-18T17:36:02;16.30;99.90
17007;DHT22;8620;51.168;4.154;2023-05-18T17:39:20;16.30;99.90
17007;DHT22;8620;51.168;4.154;2023-05-18T17:42:06;16.30;99.90
17007;DHT22;8620;51.168;4.154;2023-05-18T17:44:55;16.20;99.90
17007;DHT22;8620;51.168;4.154;2023-05-18T17:47:51;16.20;99.90
17007;DHT22;8620;51.168;4.154;2023-05-18T17:50:42;16.10;99.90
17007;DHT22;8620;51.168;4.154;2023-05-18T17:53:27;16.00;99.90
17007;DHT22;8620;51.168;4.154;2023-05-18T17:56:30;16.00;99.90
17007;DHT22;8620;51.168;4.154;2023-05-18T17:59:31;16.00;99.90
17007;DHT22;8620;51.168;4.154;2023-05-18T18:02:27;16.00;99.90
17007;DHT22;8620;51.168;4.154;2023-05-18T18:05:42;16.00;99.90
17007;DHT22;8620;51.168;4.154;2023-05-18T18:08:31;16.10;99.90
17007;DHT22;8620;51.168;4.154;2023-05-18T18:11:30;16.00;99.90
17007;DHT22;8620;51.168;4.154;2023-05-18T18:14:33;16.10;99.90
17007;DHT22;8620;51.168;4.154;2023-05-18T18:17:43;16.00;99.90
17007;DHT22;8620;51.168;4.154;2023-05-18T18:20:11;16.00;99.90
17007;DHT22;8620;51.168;4.154;2023-05-18T18:23:18;16.00;99.90
17007;DHT22;8620;51.168;4.154;2023-05-18T18:26:07;16.00;99.90
17007;DHT22;8620;51.168;4.154;2023-05-18T18:29:00;15.90;99.90
17007;DHT22;8620;51.168;4.154;2023-05-18T18:31:48;15.90;99.90
17007;DHT22;8620;51.168;4.154;2023-05-18T18:34:23;15.90;99.90
17007;DHT22;8620;51.168;4.154;2023-05-18T18:36:49;15.90;99.90
17007;DHT22;8620;51.168;4.154;2023-05-18T18:39:21;15.80;99.90
17007;DHT22;8620;51.168;4.154;2023-05-18T18:41:57;16.00;99.90
17007;DHT22;8620;51.168;4.154;2023-05-18T18:44:28;16.10;99.90
17007;DHT22;8620;51.168;4.154;2023-05-18T18:47:02;15.80;99.90
17007;DHT22;8620;51.168;4.154;2023-05-18T18:49:52;15.70;99.90
17007;DHT22;8620;51.168;4.154;2023-05-18T18:52:27;15.80;99.90
17007;DHT22;8620;51.168;4.154;2023-05-18T18:54:58;15.70;99.90
17007;DHT22;8620;51.168;4.154;2023-05-18T18:57:33;15.40;99.90
17007;DHT22;8620;51.168;4.154;2023-05-18T19:00:02;15.40;99.90
17007;DHT22;8620;51.168;4.154;2023-05-18T19:02:37;15.30;99.90
17007;DHT22;8620;51.168;4.154;2023-05-18T19:05:43;15.30;99.90
17007;DHT22;8620;51.168;4.154;2023-05-18T19:08:39;15.30;99.90
17007;DHT22;8620;51.168;4.154;2023-05-18T19:11:17;15.40;99.90
17007;DHT22;8620;51.168;4.154;2023-05-18T19:13:54;15.50;99.90
17007;DHT22;8620;51.168;4.154;2023-05-18T19:16:45;15.60;99.90
17007;DHT22;8620;51.168;4.154;2023-05-18T19:19:14;15.40;99.90
17007;DHT22;8620;51.168;4.154;2023-05-18T19:21:59;15.30;99.90
17007;DHT22;8620;51.168;4.154;2023-05-18T19:25:11;15.60;99.90
17007;DHT22;8620;51.168;4.154;2023-05-18T19:28:24;16.00;99.90
17007;DHT22;8620;51.168;4.154;2023-05-18T19:30:58;15.90;99.90
17007;DHT22;8620;51.168;4.154;2023-05-18T19:33:47;15.50;99.90
17007;DHT22;8620;51.168;4.154;2023-05-18T19:36:17;15.60;99.90
17007;DHT22;8620;51.168;4.154;2023-05-18T19:39:06;15.30;99.90
17007;DHT22;8620;51.168;4.154;2023-05-18T19:41:44;15.30;99.90
17007;DHT22;8620;51.168;4.154;2023-05-18T19:44:10;14.90;99.90
17007;DHT22;8620;51.168;4.154;2023-05-18T19:46:42;14.80;99.90
17007;DHT22;8620;51.168;4.154;2023-05-18T19:49:18;14.80;99.90
17007;DHT22;8620;51.168;4.154;2023-05-18T19:52:14;14.80;99.90
17007;DHT22;8620;51.168;4.154;2023-05-18T19:54:45;14.80;99.90
17007;DHT22;8620;51.168;4.154;2023-05-18T19:57:11;14.70;99.90
17007;DHT22;8620;51.168;4.154;2023-05-18T19:59:40;14.60;99.90
17007;DHT22;8620;51.168;4.154;2023-05-18T20:02:08;14.70;99.90
17007;DHT22;8620;51.168;4.154;2023-05-18T20:04:37;14.70;99.90
17007;DHT22;8620;51.168;4.154;2023-05-18T20:07:03;14.80;99.90
17007;DHT22;8620;51.168;4.154;2023-05-18T20:09:29;14.80;99.90
17007;DHT22;8620;51.168;4.154;2023-05-18T20:12:00;14.70;99.90
17007;DHT22;8620;51.168;4.154;2023-05-18T20:14:36;14.60;99.90
17007;DHT22;8620;51.168;4.154;2023-05-18T20:17:06;14.50;99.90
17007;DHT22;8620;51.168;4.154;2023-05-18T20:19:32;14.60;99.90
17007;DHT22;8620;51.168;4.154;2023-05-18T20:22:02;14.80;99.90
17007;DHT22;8620;51.168;4.154;2023-05-18T20:24:39;14.80;99.90
17007;DHT22;8620;51.168;4.154;2023-05-18T20:27:10;14.60;99.90
17007;DHT22;8620;51.168;4.154;2023-05-18T20:29:37;14.40;99.90
17007;DHT22;8620;51.168;4.154;2023-05-18T20:32:06;14.40;99.90
17007;DHT22;8620;51.168;4.154;2023-05-18T20:34:33;14.20;99.90
17007;DHT22;8620;51.168;4.154;2023-05-18T20:37:01;14.30;99.90
17007;DHT22;8620;51.168;4.154;2023-05-18T20:39:46;14.40;99.90
17007;DHT22;8620;51.168;4.154;2023-05-18T20:42:31;14.40;99.90
17007;DHT22;8620;51.168;4.154;2023-05-18T20:45:06;14.40;99.90
17007;DHT22;8620;51.168;4.154;2023-05-18T20:47:36;14.10;99.90
17007;DHT22;8620;51.168;4.154;2023-05-18T20:50:08;14.00;99.90
17007;DHT22;8620;51.168;4.154;2023-05-18T20:52:46;14.00;99.90
17007;DHT22;8620;51.168;4.154;2023-05-18T20:55:23;13.90;99.90
17007;DHT22;8620;51.168;4.154;2023-05-18T20:57:53;13.90;99.90
